sensor_id;sensor_type;location;lat;lon;timestamp;temperature;humidity
51837;DHT22;38941;53.254;6.600;2022-08-14T00:00:12;23.40;72.20
51837;DHT22;38941;53.254;6.600;2022-08-14T00:02:13;23.40;72.70
51837;DHT22;38941;53.254;6.600;2022-08-14T00:04:15;23.40;72.90
51837;DHT22;38941;53.254;6.600;2022-08-14T00:06:16;23.30;73.10
51837;DHT22;38941;53.254;6.600;2022-08-14T00:08:17;23.30;73.40
51837;DHT22;38941;53.254;6.600;2022-08-14T00:10:19;23.30;73.70
51837;DHT22;38941;53.254;6.600;2022-08-14T00:12:22;23.30;74.00
51837;DHT22;38941;53.254;6.600;2022-08-14T00:14:25;23.20;75.00
51837;DHT22;38941;53.254;6.600;2022-08-14T00:16:26;23.10;74.60
51837;DHT22;38941;53.254;6.600;2022-08-14T00:18:31;23.10;75.00
51837;DHT22;38941;53.254;6.600;2022-08-14T00:20:34;23.10;75.40
51837;DHT22;38941;53.254;6.600;2022-08-14T00:22:35;23.00;75.80
51837;DHT22;38941;53.254;6.600;2022-08-14T00:24:35;23.00;76.10
51837;DHT22;38941;53.254;6.600;2022-08-14T00:26:36;23.00;76.40
51837;DHT22;38941;53.254;6.600;2022-08-14T00:28:40;22.90;76.70
51837;DHT22;38941;53.254;6.600;2022-08-14T00:30:40;22.90;77.10
51837;DHT22;38941;53.254;6.600;2022-08-14T00:32:42;22.90;77.50
51837;DHT22;38941;53.254;6.600;2022-08-14T00:34:45;22.90;77.70
51837;DHT22;38941;53.254;6.600;2022-08-14T00:36:46;22.90;78.20
51837;DHT22;38941;53.254;6.600;2022-08-14T00:38:47;22.80;78.30
51837;DHT22;38941;53.254;6.600;2022-08-14T00:40:48;22.80;78.50
51837;DHT22;38941;53.254;6.600;2022-08-14T00:42:49;22.80;78.90
51837;DHT22;38941;53.254;6.600;2022-08-14T00:44:50;22.80;79.20
51837;DHT22;38941;53.254;6.600;2022-08-14T00:46:52;22.70;79.40
51837;DHT22;38941;53.254;6.600;2022-08-14T00:48:53;22.70;79.70
51837;DHT22;38941;53.254;6.600;2022-08-14T00:50:57;22.70;80.00
51837;DHT22;38941;53.254;6.600;2022-08-14T00:52:59;22.70;80.10
51837;DHT22;38941;53.254;6.600;2022-08-14T00:55:01;22.70;80.30
51837;DHT22;38941;53.254;6.600;2022-08-14T00:57:02;22.70;80.50
51837;DHT22;38941;53.254;6.600;2022-08-14T00:59:03;22.60;80.90
51837;DHT22;38941;53.254;6.600;2022-08-14T01:01:09;22.60;81.20
51837;DHT22;38941;53.254;6.600;2022-08-14T01:03:11;22.60;81.60
51837;DHT22;38941;53.254;6.600;2022-08-14T01:05:12;22.50;81.70
51837;DHT22;38941;53.254;6.600;2022-08-14T01:07:26;22.50;81.90
51837;DHT22;38941;53.254;6.600;2022-08-14T01:09:29;22.50;82.20
51837;DHT22;38941;53.254;6.600;2022-08-14T01:11:30;22.50;82.30
51837;DHT22;38941;53.254;6.600;2022-08-14T01:13:35;22.40;82.50
51837;DHT22;38941;53.254;6.600;2022-08-14T01:15:36;22.40;82.80
51837;DHT22;38941;53.254;6.600;2022-08-14T01:17:37;22.40;82.90
51837;DHT22;38941;53.254;6.600;2022-08-14T01:19:56;22.40;83.10
51837;DHT22;38941;53.254;6.600;2022-08-14T01:22:16;22.30;83.20
51837;DHT22;38941;53.254;6.600;2022-08-14T01:24:18;22.30;83.40
51837;DHT22;38941;53.254;6.600;2022-08-14T01:26:22;22.30;83.40
51837;DHT22;38941;53.254;6.600;2022-08-14T01:28:24;22.30;83.60
51837;DHT22;38941;53.254;6.600;2022-08-14T01:30:30;22.30;83.70
51837;DHT22;38941;53.254;6.600;2022-08-14T01:32:33;22.30;83.80
51837;DHT22;38941;53.254;6.600;2022-08-14T01:34:33;22.20;84.00
51837;DHT22;38941;53.254;6.600;2022-08-14T01:36:35;22.20;84.60
51837;DHT22;38941;53.254;6.600;2022-08-14T01:38:41;22.20;84.20
51837;DHT22;38941;53.254;6.600;2022-08-14T01:40:45;22.20;84.30
51837;DHT22;38941;53.254;6.600;2022-08-14T01:42:47;22.20;84.60
51837;DHT22;38941;53.254;6.600;2022-08-14T01:44:48;22.10;84.50
51837;DHT22;38941;53.254;6.600;2022-08-14T01:46:51;22.10;84.60
51837;DHT22;38941;53.254;6.600;2022-08-14T01:48:53;22.10;84.80
51837;DHT22;38941;53.254;6.600;2022-08-14T01:50:56;22.10;84.90
51837;DHT22;38941;53.254;6.600;2022-08-14T01:52:57;22.10;85.10
51837;DHT22;38941;53.254;6.600;2022-08-14T01:54:57;22.10;85.20
51837;DHT22;38941;53.254;6.600;2022-08-14T01:56:58;22.10;85.50
51837;DHT22;38941;53.254;6.600;2022-08-14T01:58:59;22.10;85.40
51837;DHT22;38941;53.254;6.600;2022-08-14T02:01:00;22.10;85.60
51837;DHT22;38941;53.254;6.600;2022-08-14T02:03:00;22.10;85.70
51837;DHT22;38941;53.254;6.600;2022-08-14T02:05:01;22.10;85.80
51837;DHT22;38941;53.254;6.600;2022-08-14T02:07:04;22.10;85.80
51837;DHT22;38941;53.254;6.600;2022-08-14T02:09:06;22.10;86.10
51837;DHT22;38941;53.254;6.600;2022-08-14T02:11:10;22.00;86.10
51837;DHT22;38941;53.254;6.600;2022-08-14T02:13:18;22.00;86.40
51837;DHT22;38941;53.254;6.600;2022-08-14T02:15:20;22.00;86.40
51837;DHT22;38941;53.254;6.600;2022-08-14T02:17:21;22.00;86.60
51837;DHT22;38941;53.254;6.600;2022-08-14T02:19:25;22.00;86.80
51837;DHT22;38941;53.254;6.600;2022-08-14T02:21:31;21.90;87.10
51837;DHT22;38941;53.254;6.600;2022-08-14T02:23:32;21.90;87.30
51837;DHT22;38941;53.254;6.600;2022-08-14T02:25:33;21.90;87.60
51837;DHT22;38941;53.254;6.600;2022-08-14T02:27:33;21.90;87.70
51837;DHT22;38941;53.254;6.600;2022-08-14T02:29:36;21.90;87.90
51837;DHT22;38941;53.254;6.600;2022-08-14T02:31:40;21.80;88.00
51837;DHT22;38941;53.254;6.600;2022-08-14T02:33:42;21.80;88.20
51837;DHT22;38941;53.254;6.600;2022-08-14T02:35:43;21.80;88.30
51837;DHT22;38941;53.254;6.600;2022-08-14T02:37:45;21.80;88.60
51837;DHT22;38941;53.254;6.600;2022-08-14T02:39:46;21.70;88.70
51837;DHT22;38941;53.254;6.600;2022-08-14T02:41:47;21.70;88.90
51837;DHT22;38941;53.254;6.600;2022-08-14T02:43:50;21.60;89.00
51837;DHT22;38941;53.254;6.600;2022-08-14T02:45:51;21.60;89.10
51837;DHT22;38941;53.254;6.600;2022-08-14T02:47:52;21.60;89.30
51837;DHT22;38941;53.254;6.600;2022-08-14T02:49:53;21.50;89.40
51837;DHT22;38941;53.254;6.600;2022-08-14T02:51:56;21.60;89.60
51837;DHT22;38941;53.254;6.600;2022-08-14T02:53:57;21.50;89.70
51837;DHT22;38941;53.254;6.600;2022-08-14T02:56:00;21.50;89.80
51837;DHT22;38941;53.254;6.600;2022-08-14T02:58:02;21.40;89.90
51837;DHT22;38941;53.254;6.600;2022-08-14T03:00:05;21.40;90.00
51837;DHT22;38941;53.254;6.600;2022-08-14T03:02:06;21.30;90.00
51837;DHT22;38941;53.254;6.600;2022-08-14T03:04:08;21.30;90.10
51837;DHT22;38941;53.254;6.600;2022-08-14T03:06:12;21.20;90.10
51837;DHT22;38941;53.254;6.600;2022-08-14T03:08:13;21.20;90.10
51837;DHT22;38941;53.254;6.600;2022-08-14T03:10:14;21.20;90.10
51837;DHT22;38941;53.254;6.600;2022-08-14T03:12:15;21.20;90.20
51837;DHT22;38941;53.254;6.600;2022-08-14T03:14:16;21.20;90.20
51837;DHT22;38941;53.254;6.600;2022-08-14T03:16:20;21.20;90.30
51837;DHT22;38941;53.254;6.600;2022-08-14T03:18:21;21.20;90.50
51837;DHT22;38941;53.254;6.600;2022-08-14T03:20:23;21.10;90.40
51837;DHT22;38941;53.254;6.600;2022-08-14T03:22:23;21.10;90.50
51837;DHT22;38941;53.254;6.600;2022-08-14T03:24:24;21.00;90.70
51837;DHT22;38941;53.254;6.600;2022-08-14T03:26:26;21.00;90.80
51837;DHT22;38941;53.254;6.600;2022-08-14T03:28:27;21.00;90.90
51837;DHT22;38941;53.254;6.600;2022-08-14T03:30:30;20.90;91.00
51837;DHT22;38941;53.254;6.600;2022-08-14T03:32:30;20.90;91.10
51837;DHT22;38941;53.254;6.600;2022-08-14T03:34:32;20.90;91.10
51837;DHT22;38941;53.254;6.600;2022-08-14T03:36:35;21.00;91.20
51837;DHT22;38941;53.254;6.600;2022-08-14T03:38:35;20.90;91.30
51837;DHT22;38941;53.254;6.600;2022-08-14T03:40:42;20.90;91.30
51837;DHT22;38941;53.254;6.600;2022-08-14T03:42:44;20.90;91.40
51837;DHT22;38941;53.254;6.600;2022-08-14T03:44:44;20.90;91.40
51837;DHT22;38941;53.254;6.600;2022-08-14T03:46:45;20.90;91.50
51837;DHT22;38941;53.254;6.600;2022-08-14T03:48:47;20.80;91.50
51837;DHT22;38941;53.254;6.600;2022-08-14T03:50:50;20.80;91.60
51837;DHT22;38941;53.254;6.600;2022-08-14T03:52:53;20.80;91.60
51837;DHT22;38941;53.254;6.600;2022-08-14T03:54:55;20.90;91.60
51837;DHT22;38941;53.254;6.600;2022-08-14T03:56:56;20.80;91.60
51837;DHT22;38941;53.254;6.600;2022-08-14T03:59:00;20.80;91.70
51837;DHT22;38941;53.254;6.600;2022-08-14T04:01:08;20.80;91.70
51837;DHT22;38941;53.254;6.600;2022-08-14T04:03:12;20.80;91.80
51837;DHT22;38941;53.254;6.600;2022-08-14T04:05:14;20.80;91.80
51837;DHT22;38941;53.254;6.600;2022-08-14T04:07:15;20.70;91.80
51837;DHT22;38941;53.254;6.600;2022-08-14T04:09:16;20.70;91.80
51837;DHT22;38941;53.254;6.600;2022-08-14T04:11:20;20.70;91.90
51837;DHT22;38941;53.254;6.600;2022-08-14T04:13:21;20.70;92.00
51837;DHT22;38941;53.254;6.600;2022-08-14T04:15:22;20.70;92.00
51837;DHT22;38941;53.254;6.600;2022-08-14T04:17:23;20.70;92.00
51837;DHT22;38941;53.254;6.600;2022-08-14T04:19:25;20.70;92.00
51837;DHT22;38941;53.254;6.600;2022-08-14T04:21:27;20.70;92.00
51837;DHT22;38941;53.254;6.600;2022-08-14T04:23:29;20.70;92.00
51837;DHT22;38941;53.254;6.600;2022-08-14T04:25:30;20.60;92.00
51837;DHT22;38941;53.254;6.600;2022-08-14T04:27:36;20.70;92.00
51837;DHT22;38941;53.254;6.600;2022-08-14T04:29:40;20.60;91.90
51837;DHT22;38941;53.254;6.600;2022-08-14T04:31:41;20.70;91.90
51837;DHT22;38941;53.254;6.600;2022-08-14T04:33:42;20.70;91.80
51837;DHT22;38941;53.254;6.600;2022-08-14T04:35:43;20.70;91.70
51837;DHT22;38941;53.254;6.600;2022-08-14T04:37:43;20.70;91.70
51837;DHT22;38941;53.254;6.600;2022-08-14T04:40:02;20.70;91.70
51837;DHT22;38941;53.254;6.600;2022-08-14T04:42:21;20.70;92.00
51837;DHT22;38941;53.254;6.600;2022-08-14T04:44:40;20.70;91.40
51837;DHT22;38941;53.254;6.600;2022-08-14T04:46:41;20.70;91.90
51837;DHT22;38941;53.254;6.600;2022-08-14T04:49:03;20.70;91.30
51837;DHT22;38941;53.254;6.600;2022-08-14T04:51:06;20.70;91.40
51837;DHT22;38941;53.254;6.600;2022-08-14T04:53:08;20.70;91.50
51837;DHT22;38941;53.254;6.600;2022-08-14T04:55:12;20.70;91.60
51837;DHT22;38941;53.254;6.600;2022-08-14T04:57:14;20.70;91.60
51837;DHT22;38941;53.254;6.600;2022-08-14T04:59:15;20.80;91.70
51837;DHT22;38941;53.254;6.600;2022-08-14T05:01:16;20.80;91.80
51837;DHT22;38941;53.254;6.600;2022-08-14T05:03:18;20.80;91.80
51837;DHT22;38941;53.254;6.600;2022-08-14T05:05:23;20.80;91.90
51837;DHT22;38941;53.254;6.600;2022-08-14T05:07:24;20.80;91.90
51837;DHT22;38941;53.254;6.600;2022-08-14T05:09:25;20.80;92.00
51837;DHT22;38941;53.254;6.600;2022-08-14T05:11:26;20.70;92.10
51837;DHT22;38941;53.254;6.600;2022-08-14T05:13:29;20.70;92.20
51837;DHT22;38941;53.254;6.600;2022-08-14T05:15:34;20.80;92.20
51837;DHT22;38941;53.254;6.600;2022-08-14T05:17:41;20.70;92.20
51837;DHT22;38941;53.254;6.600;2022-08-14T05:19:42;20.70;92.30
51837;DHT22;38941;53.254;6.600;2022-08-14T05:21:43;20.70;92.20
51837;DHT22;38941;53.254;6.600;2022-08-14T05:23:44;20.70;92.20
51837;DHT22;38941;53.254;6.600;2022-08-14T05:25:46;20.70;92.30
51837;DHT22;38941;53.254;6.600;2022-08-14T05:27:47;20.70;92.30
51837;DHT22;38941;53.254;6.600;2022-08-14T05:29:48;20.70;92.30
51837;DHT22;38941;53.254;6.600;2022-08-14T05:31:49;20.80;92.30
51837;DHT22;38941;53.254;6.600;2022-08-14T05:33:49;20.80;92.20
51837;DHT22;38941;53.254;6.600;2022-08-14T05:35:53;20.90;92.20
51837;DHT22;38941;53.254;6.600;2022-08-14T05:37:53;21.00;92.20
51837;DHT22;38941;53.254;6.600;2022-08-14T05:39:54;21.00;92.10
51837;DHT22;38941;53.254;6.600;2022-08-14T05:41:56;21.10;92.10
51837;DHT22;38941;53.254;6.600;2022-08-14T05:43:57;21.10;92.10
51837;DHT22;38941;53.254;6.600;2022-08-14T05:45:58;21.20;92.10
51837;DHT22;38941;53.254;6.600;2022-08-14T05:48:03;21.30;92.10
51837;DHT22;38941;53.254;6.600;2022-08-14T05:50:07;21.40;92.10
51837;DHT22;38941;53.254;6.600;2022-08-14T05:52:07;21.50;92.20
51837;DHT22;38941;53.254;6.600;2022-08-14T05:54:08;21.50;92.10
51837;DHT22;38941;53.254;6.600;2022-08-14T05:56:09;21.50;92.10
51837;DHT22;38941;53.254;6.600;2022-08-14T05:58:10;21.50;92.00
51837;DHT22;38941;53.254;6.600;2022-08-14T06:00:11;21.60;92.00
51837;DHT22;38941;53.254;6.600;2022-08-14T06:02:12;21.60;91.90
51837;DHT22;38941;53.254;6.600;2022-08-14T06:04:12;21.70;91.90
51837;DHT22;38941;53.254;6.600;2022-08-14T06:06:13;21.70;91.90
51837;DHT22;38941;53.254;6.600;2022-08-14T06:10:20;21.80;91.90
51837;DHT22;38941;53.254;6.600;2022-08-14T06:12:21;21.90;91.70
51837;DHT22;38941;53.254;6.600;2022-08-14T06:14:22;22.00;91.80
51837;DHT22;38941;53.254;6.600;2022-08-14T06:16:24;22.00;91.70
51837;DHT22;38941;53.254;6.600;2022-08-14T06:18:24;22.20;91.60
51837;DHT22;38941;53.254;6.600;2022-08-14T06:20:29;22.20;91.60
51837;DHT22;38941;53.254;6.600;2022-08-14T06:22:30;22.20;91.50
51837;DHT22;38941;53.254;6.600;2022-08-14T06:24:30;22.40;91.50
51837;DHT22;38941;53.254;6.600;2022-08-14T06:26:31;22.50;91.40
51837;DHT22;38941;53.254;6.600;2022-08-14T06:28:32;22.50;91.40
51837;DHT22;38941;53.254;6.600;2022-08-14T06:30:33;22.60;91.60
51837;DHT22;38941;53.254;6.600;2022-08-14T06:32:35;22.70;91.30
51837;DHT22;38941;53.254;6.600;2022-08-14T06:34:37;22.70;91.30
51837;DHT22;38941;53.254;6.600;2022-08-14T06:36:39;22.80;91.30
51837;DHT22;38941;53.254;6.600;2022-08-14T06:38:39;22.90;91.20
51837;DHT22;38941;53.254;6.600;2022-08-14T06:40:40;23.00;91.10
51837;DHT22;38941;53.254;6.600;2022-08-14T06:42:41;23.10;91.00
51837;DHT22;38941;53.254;6.600;2022-08-14T06:44:42;23.10;90.80
51837;DHT22;38941;53.254;6.600;2022-08-14T06:46:43;23.20;90.70
51837;DHT22;38941;53.254;6.600;2022-08-14T06:48:43;23.30;90.70
51837;DHT22;38941;53.254;6.600;2022-08-14T06:50:45;23.40;90.60
51837;DHT22;38941;53.254;6.600;2022-08-14T06:52:47;23.40;90.50
51837;DHT22;38941;53.254;6.600;2022-08-14T06:54:47;23.50;90.40
51837;DHT22;38941;53.254;6.600;2022-08-14T06:56:49;23.60;90.30
51837;DHT22;38941;53.254;6.600;2022-08-14T06:58:49;23.60;90.20
51837;DHT22;38941;53.254;6.600;2022-08-14T07:00:50;23.60;90.00
51837;DHT22;38941;53.254;6.600;2022-08-14T07:03:09;23.60;89.90
51837;DHT22;38941;53.254;6.600;2022-08-14T07:05:28;23.60;89.50
51837;DHT22;38941;53.254;6.600;2022-08-14T07:07:51;23.70;89.30
51837;DHT22;38941;53.254;6.600;2022-08-14T07:09:52;23.70;89.10
51837;DHT22;38941;53.254;6.600;2022-08-14T07:11:54;23.80;88.90
51837;DHT22;38941;53.254;6.600;2022-08-14T07:13:54;23.90;88.70
51837;DHT22;38941;53.254;6.600;2022-08-14T07:15:56;24.00;88.50
51837;DHT22;38941;53.254;6.600;2022-08-14T07:17:57;24.10;88.20
51837;DHT22;38941;53.254;6.600;2022-08-14T07:19:59;24.20;87.80
51837;DHT22;38941;53.254;6.600;2022-08-14T07:22:00;24.30;87.60
51837;DHT22;38941;53.254;6.600;2022-08-14T07:24:04;24.40;87.30
51837;DHT22;38941;53.254;6.600;2022-08-14T07:26:05;24.60;86.90
51837;DHT22;38941;53.254;6.600;2022-08-14T07:28:15;24.60;86.50
51837;DHT22;38941;53.254;6.600;2022-08-14T07:30:17;24.80;86.80
51837;DHT22;38941;53.254;6.600;2022-08-14T07:32:17;24.80;86.30
51837;DHT22;38941;53.254;6.600;2022-08-14T07:34:18;25.00;86.00
51837;DHT22;38941;53.254;6.600;2022-08-14T07:36:21;25.10;85.60
51837;DHT22;38941;53.254;6.600;2022-08-14T07:38:23;25.30;85.10
51837;DHT22;38941;53.254;6.600;2022-08-14T07:40:23;25.40;84.90
51837;DHT22;38941;53.254;6.600;2022-08-14T07:42:24;25.60;84.20
51837;DHT22;38941;53.254;6.600;2022-08-14T07:44:26;25.70;83.90
51837;DHT22;38941;53.254;6.600;2022-08-14T07:46:26;25.80;83.40
51837;DHT22;38941;53.254;6.600;2022-08-14T07:48:29;26.00;82.80
51837;DHT22;38941;53.254;6.600;2022-08-14T07:50:31;26.10;83.10
51837;DHT22;38941;53.254;6.600;2022-08-14T07:52:33;26.10;81.70
51837;DHT22;38941;53.254;6.600;2022-08-14T07:54:34;26.10;81.50
51837;DHT22;38941;53.254;6.600;2022-08-14T07:56:35;26.30;81.30
51837;DHT22;38941;53.254;6.600;2022-08-14T07:58:35;26.40;80.90
51837;DHT22;38941;53.254;6.600;2022-08-14T08:00:37;26.50;80.60
51837;DHT22;38941;53.254;6.600;2022-08-14T08:02:40;26.60;80.10
51837;DHT22;38941;53.254;6.600;2022-08-14T08:04:44;26.80;79.60
51837;DHT22;38941;53.254;6.600;2022-08-14T08:06:45;27.00;78.60
51837;DHT22;38941;53.254;6.600;2022-08-14T08:08:47;27.10;78.40
51837;DHT22;38941;53.254;6.600;2022-08-14T08:10:54;27.20;77.80
51837;DHT22;38941;53.254;6.600;2022-08-14T08:13:02;27.30;77.60
51837;DHT22;38941;53.254;6.600;2022-08-14T08:15:04;27.40;77.00
51837;DHT22;38941;53.254;6.600;2022-08-14T08:17:06;27.50;76.80
51837;DHT22;38941;53.254;6.600;2022-08-14T08:19:07;27.50;76.20
51837;DHT22;38941;53.254;6.600;2022-08-14T08:21:08;27.40;75.60
51837;DHT22;38941;53.254;6.600;2022-08-14T08:23:13;27.40;75.40
51837;DHT22;38941;53.254;6.600;2022-08-14T08:25:17;27.50;75.20
51837;DHT22;38941;53.254;6.600;2022-08-14T08:27:19;27.60;75.30
51837;DHT22;38941;53.254;6.600;2022-08-14T08:29:21;27.80;75.10
51837;DHT22;38941;53.254;6.600;2022-08-14T08:31:24;28.00;74.70
51837;DHT22;38941;53.254;6.600;2022-08-14T08:33:29;28.10;73.80
51837;DHT22;38941;53.254;6.600;2022-08-14T08:35:32;28.20;73.10
51837;DHT22;38941;53.254;6.600;2022-08-14T08:37:35;28.20;72.20
51837;DHT22;38941;53.254;6.600;2022-08-14T08:39:47;28.10;72.00
51837;DHT22;38941;53.254;6.600;2022-08-14T08:41:48;28.20;71.40
51837;DHT22;38941;53.254;6.600;2022-08-14T08:43:49;28.40;72.20
51837;DHT22;38941;53.254;6.600;2022-08-14T08:45:58;28.60;72.00
51837;DHT22;38941;53.254;6.600;2022-08-14T08:48:02;28.70;70.80
51837;DHT22;38941;53.254;6.600;2022-08-14T08:50:03;28.80;70.50
51837;DHT22;38941;53.254;6.600;2022-08-14T08:52:05;28.80;70.50
51837;DHT22;38941;53.254;6.600;2022-08-14T08:54:12;28.90;70.40
51837;DHT22;38941;53.254;6.600;2022-08-14T08:56:14;29.10;69.50
51837;DHT22;38941;53.254;6.600;2022-08-14T08:58:19;29.30;69.20
51837;DHT22;38941;53.254;6.600;2022-08-14T09:00:20;29.40;68.40
51837;DHT22;38941;53.254;6.600;2022-08-14T09:02:25;29.60;68.20
51837;DHT22;38941;53.254;6.600;2022-08-14T09:04:43;29.90;68.10
51837;DHT22;38941;53.254;6.600;2022-08-14T09:06:47;30.00;67.00
51837;DHT22;38941;53.254;6.600;2022-08-14T09:08:54;30.10;66.70
51837;DHT22;38941;53.254;6.600;2022-08-14T09:11:04;30.30;66.30
51837;DHT22;38941;53.254;6.600;2022-08-14T09:13:08;30.50;66.20
51837;DHT22;38941;53.254;6.600;2022-08-14T09:15:14;30.60;65.90
51837;DHT22;38941;53.254;6.600;2022-08-14T09:17:17;30.60;65.00
51837;DHT22;38941;53.254;6.600;2022-08-14T09:19:20;30.70;65.30
51837;DHT22;38941;53.254;6.600;2022-08-14T09:21:24;30.70;64.40
51837;DHT22;38941;53.254;6.600;2022-08-14T09:23:29;30.60;64.10
51837;DHT22;38941;53.254;6.600;2022-08-14T09:25:37;30.60;64.20
51837;DHT22;38941;53.254;6.600;2022-08-14T09:27:43;31.00;64.40
51837;DHT22;38941;53.254;6.600;2022-08-14T09:29:50;31.20;63.10
51837;DHT22;38941;53.254;6.600;2022-08-14T09:32:00;31.10;62.60
51837;DHT22;38941;53.254;6.600;2022-08-14T09:42:27;31.60;60.70
51837;DHT22;38941;53.254;6.600;2022-08-14T09:46:56;31.80;58.80
51837;DHT22;38941;53.254;6.600;2022-08-14T09:48:59;31.70;59.40
51837;DHT22;38941;53.254;6.600;2022-08-14T09:51:01;31.70;59.20
51837;DHT22;38941;53.254;6.600;2022-08-14T09:53:07;31.80;59.10
51837;DHT22;38941;53.254;6.600;2022-08-14T09:55:16;32.10;58.90
51837;DHT22;38941;53.254;6.600;2022-08-14T09:57:26;32.40;58.20
51837;DHT22;38941;53.254;6.600;2022-08-14T09:59:52;32.40;57.30
51837;DHT22;38941;53.254;6.600;2022-08-14T10:01:55;32.10;56.40
51837;DHT22;38941;53.254;6.600;2022-08-14T10:03:57;31.80;57.70
51837;DHT22;38941;53.254;6.600;2022-08-14T10:06:10;31.80;57.90
51837;DHT22;38941;53.254;6.600;2022-08-14T10:08:18;31.90;58.20
51837;DHT22;38941;53.254;6.600;2022-08-14T10:10:36;31.80;58.00
51837;DHT22;38941;53.254;6.600;2022-08-14T10:12:42;32.20;57.70
51837;DHT22;38941;53.254;6.600;2022-08-14T10:14:44;32.30;58.50
51837;DHT22;38941;53.254;6.600;2022-08-14T10:16:49;32.60;58.30
51837;DHT22;38941;53.254;6.600;2022-08-14T10:19:08;32.80;57.00
51837;DHT22;38941;53.254;6.600;2022-08-14T10:21:15;33.20;56.20
51837;DHT22;38941;53.254;6.600;2022-08-14T10:23:22;33.30;55.60
51837;DHT22;38941;53.254;6.600;2022-08-14T10:25:41;33.30;55.80
51837;DHT22;38941;53.254;6.600;2022-08-14T10:27:57;33.50;54.50
51837;DHT22;38941;53.254;6.600;2022-08-14T10:30:15;33.40;54.60
51837;DHT22;38941;53.254;6.600;2022-08-14T10:32:17;33.50;53.10
51837;DHT22;38941;53.254;6.600;2022-08-14T10:34:28;33.40;54.30
51837;DHT22;38941;53.254;6.600;2022-08-14T10:36:38;33.00;54.00
51837;DHT22;38941;53.254;6.600;2022-08-14T10:38:41;32.70;54.00
51837;DHT22;38941;53.254;6.600;2022-08-14T10:40:44;32.80;54.20
51837;DHT22;38941;53.254;6.600;2022-08-14T10:42:47;32.90;54.00
51837;DHT22;38941;53.254;6.600;2022-08-14T10:44:52;33.20;53.70
51837;DHT22;38941;53.254;6.600;2022-08-14T10:46:57;33.40;53.80
51837;DHT22;38941;53.254;6.600;2022-08-14T10:49:03;33.70;54.30
51837;DHT22;38941;53.254;6.600;2022-08-14T10:51:07;33.70;53.30
51837;DHT22;38941;53.254;6.600;2022-08-14T10:53:14;33.80;54.10
51837;DHT22;38941;53.254;6.600;2022-08-14T10:55:17;34.00;52.80
51837;DHT22;38941;53.254;6.600;2022-08-14T10:57:25;33.90;52.30
51837;DHT22;38941;53.254;6.600;2022-08-14T10:59:47;33.40;52.10
51837;DHT22;38941;53.254;6.600;2022-08-14T11:01:50;33.40;52.60
51837;DHT22;38941;53.254;6.600;2022-08-14T11:03:51;33.70;54.10
51837;DHT22;38941;53.254;6.600;2022-08-14T11:05:52;34.00;53.80
51837;DHT22;38941;53.254;6.600;2022-08-14T11:09:58;33.90;51.70
51837;DHT22;38941;53.254;6.600;2022-08-14T11:12:00;33.50;51.30
51837;DHT22;38941;53.254;6.600;2022-08-14T11:14:05;33.40;51.50
51837;DHT22;38941;53.254;6.600;2022-08-14T11:16:08;33.50;51.90
51837;DHT22;38941;53.254;6.600;2022-08-14T11:18:14;33.90;52.10
51837;DHT22;38941;53.254;6.600;2022-08-14T11:20:19;34.00;51.50
51837;DHT22;38941;53.254;6.600;2022-08-14T11:22:30;34.10;50.40
51837;DHT22;38941;53.254;6.600;2022-08-14T11:24:37;33.80;49.90
51837;DHT22;38941;53.254;6.600;2022-08-14T11:26:45;33.70;50.60
51837;DHT22;38941;53.254;6.600;2022-08-14T11:28:52;33.30;50.80
51837;DHT22;38941;53.254;6.600;2022-08-14T11:30:59;33.30;51.40
51837;DHT22;38941;53.254;6.600;2022-08-14T11:33:02;33.40;51.70
51837;DHT22;38941;53.254;6.600;2022-08-14T11:35:04;33.40;51.20
51837;DHT22;38941;53.254;6.600;2022-08-14T11:37:09;33.70;51.50
51837;DHT22;38941;53.254;6.600;2022-08-14T11:39:21;34.20;51.80
51837;DHT22;38941;53.254;6.600;2022-08-14T11:41:23;34.70;50.60
51837;DHT22;38941;53.254;6.600;2022-08-14T11:43:28;35.00;49.80
51837;DHT22;38941;53.254;6.600;2022-08-14T11:45:33;35.30;49.60
51837;DHT22;38941;53.254;6.600;2022-08-14T11:47:36;35.60;49.20
51837;DHT22;38941;53.254;6.600;2022-08-14T11:49:38;35.60;49.10
51837;DHT22;38941;53.254;6.600;2022-08-14T11:51:52;35.90;49.20
51837;DHT22;38941;53.254;6.600;2022-08-14T11:54:01;36.10;47.90
51837;DHT22;38941;53.254;6.600;2022-08-14T11:56:04;36.20;48.40
51837;DHT22;38941;53.254;6.600;2022-08-14T11:58:08;36.30;47.80
51837;DHT22;38941;53.254;6.600;2022-08-14T12:00:14;36.50;47.80
51837;DHT22;38941;53.254;6.600;2022-08-14T12:02:20;36.50;47.10
51837;DHT22;38941;53.254;6.600;2022-08-14T12:04:22;36.50;47.30
51837;DHT22;38941;53.254;6.600;2022-08-14T12:06:24;36.60;46.90
51837;DHT22;38941;53.254;6.600;2022-08-14T12:08:32;36.00;47.10
51837;DHT22;38941;53.254;6.600;2022-08-14T12:10:40;35.60;47.30
51837;DHT22;38941;53.254;6.600;2022-08-14T12:12:41;35.80;48.50
51837;DHT22;38941;53.254;6.600;2022-08-14T12:14:55;35.80;48.00
51837;DHT22;38941;53.254;6.600;2022-08-14T12:16:59;36.00;47.40
51837;DHT22;38941;53.254;6.600;2022-08-14T12:19:01;36.30;47.30
51837;DHT22;38941;53.254;6.600;2022-08-14T12:21:23;36.30;46.50
51837;DHT22;38941;53.254;6.600;2022-08-14T12:23:26;35.90;45.00
51837;DHT22;38941;53.254;6.600;2022-08-14T12:25:28;36.00;46.70
51837;DHT22;38941;53.254;6.600;2022-08-14T12:27:38;36.20;46.90
51837;DHT22;38941;53.254;6.600;2022-08-14T12:29:51;36.40;45.00
51837;DHT22;38941;53.254;6.600;2022-08-14T12:32:00;36.50;47.10
51837;DHT22;38941;53.254;6.600;2022-08-14T12:34:08;36.50;45.70
51837;DHT22;38941;53.254;6.600;2022-08-14T12:36:21;36.40;45.90
51837;DHT22;38941;53.254;6.600;2022-08-14T12:38:51;36.50;45.70
51837;DHT22;38941;53.254;6.600;2022-08-14T12:40:53;37.00;44.30
51837;DHT22;38941;53.254;6.600;2022-08-14T12:42:59;36.90;45.50
51837;DHT22;38941;53.254;6.600;2022-08-14T12:44:59;36.70;46.20
51837;DHT22;38941;53.254;6.600;2022-08-14T12:47:14;36.60;46.10
51837;DHT22;38941;53.254;6.600;2022-08-14T12:49:20;36.70;45.60
51837;DHT22;38941;53.254;6.600;2022-08-14T12:51:27;36.60;45.50
51837;DHT22;38941;53.254;6.600;2022-08-14T12:53:34;36.80;45.60
51837;DHT22;38941;53.254;6.600;2022-08-14T12:55:40;36.50;44.90
51837;DHT22;38941;53.254;6.600;2022-08-14T12:57:45;36.30;45.10
51837;DHT22;38941;53.254;6.600;2022-08-14T12:59:48;36.00;45.70
51837;DHT22;38941;53.254;6.600;2022-08-14T13:01:55;35.90;45.80
51837;DHT22;38941;53.254;6.600;2022-08-14T13:04:09;36.00;45.40
51837;DHT22;38941;53.254;6.600;2022-08-14T13:06:13;36.30;45.70
51837;DHT22;38941;53.254;6.600;2022-08-14T13:08:15;36.70;46.00
51837;DHT22;38941;53.254;6.600;2022-08-14T13:10:19;36.80;45.40
51837;DHT22;38941;53.254;6.600;2022-08-14T13:12:23;36.50;45.30
51837;DHT22;38941;53.254;6.600;2022-08-14T13:14:29;36.70;45.00
51837;DHT22;38941;53.254;6.600;2022-08-14T13:16:34;36.60;45.10